Time;durP1;ratioP1;P1;durP2;ratioP2;P2;SDS_P1;SDS_P2;PMS_P1;PMS_P2;Temp;Humidity;BMP_temperature;BMP_pressure;BME280_temperature;BME280_humidity;BME280_pressure;Samples;Min_cycle;Max_cycle;Signal;HPM_P1;HPM_P2
2022/05/08 00:02:22;;;;;;;1.00;0.90;;;;;;;21.52;48.51;102729.03;5065144;28;20094;-49
2022/05/08 00:04:51;;;;;;;1.30;1.00;;;;;;;21.49;48.32;102714.91;5064596;28;20556;-49
2022/05/08 00:07:17;;;;;;;1.52;1.02;;;;;;;21.50;48.38;102720.22;5076139;28;20044;-50
2022/05/08 00:09:43;;;;;;;1.00;0.65;;;;;;;21.51;48.51;102727.31;5084164;28;20096;-46
2022/05/08 00:12:11;;;;;;;1.40;1.10;;;;;;;21.48;48.32;102718.63;5084224;28;20028;-51
2022/05/08 00:14:37;;;;;;;1.73;1.10;;;;;;;21.46;48.16;102716.94;5083295;28;20166;-48
2022/05/08 00:17:02;;;;;;;1.45;1.02;;;;;;;21.49;48.31;102723.91;5084259;28;20025;-51
2022/05/08 00:19:28;;;;;;;1.23;0.93;;;;;;;21.49;48.24;102725.75;5084099;28;20031;-49
2022/05/08 00:21:53;;;;;;;1.45;1.10;;;;;;;21.48;48.08;102730.31;5084372;28;20020;-49
2022/05/08 00:24:18;;;;;;;1.63;1.20;;;;;;;21.48;48.19;102727.59;5066364;28;20025;-48
2022/05/08 00:26:43;;;;;;;1.17;0.95;;;;;;;21.45;48.02;102715.22;5064183;28;20029;-46
2022/05/08 00:29:10;;;;;;;1.25;0.80;;;;;;;21.48;48.22;102726.75;5063405;28;20060;-49
2022/05/08 00:31:36;;;;;;;1.10;1.00;;;;;;;21.47;47.99;102723.19;5063744;28;20017;-50
2022/05/08 00:34:03;;;;;;;1.23;0.90;;;;;;;21.46;48.26;102719.63;5063926;28;20029;-47
2022/05/08 00:36:28;;;;;;;1.63;1.30;;;;;;;21.47;48.05;102725.91;5075888;28;20039;-50
2022/05/08 00:38:55;;;;;;;1.38;1.10;;;;;;;21.46;48.18;102725.06;5104320;28;20035;-50
2022/05/08 00:41:20;;;;;;;1.33;1.00;;;;;;;21.44;47.84;102729.72;5103858;28;20031;-48
2022/05/08 00:43:46;;;;;;;1.70;0.98;;;;;;;21.45;47.95;102730.59;5096794;28;20031;-51
2022/05/08 00:46:12;;;;;;;1.52;0.98;;;;;;;21.46;47.96;102738.59;5083186;28;20051;-50
2022/05/08 00:48:38;;;;;;;1.73;1.10;;;;;;;21.46;47.88;102730.47;5083893;28;20029;-49
2022/05/08 00:51:13;;;;;;;1.50;0.85;;;;;;;21.48;47.80;102737.56;5083736;28;20720;-51
2022/05/08 00:53:41;;;;;;;1.13;0.70;;;;;;;21.46;47.92;102735.03;5082536;28;20047;-48
2022/05/08 00:56:08;;;;;;;2.05;1.05;;;;;;;21.45;47.84;102733.28;5083637;28;20164;-48
2022/05/08 00:58:37;;;;;;;1.48;0.98;;;;;;;21.45;47.96;102736.00;5083550;28;20032;-52
2022/05/08 01:01:02;;;;;;;1.25;0.90;;;;;;;21.43;47.96;102736.16;5082584;28;20058;-50
2022/05/08 01:03:28;;;;;;;1.30;0.93;;;;;;;21.42;47.52;102734.44;5083623;28;20056;-50
2022/05/08 01:05:54;;;;;;;1.58;0.95;;;;;;;21.43;47.71;102733.44;5080657;28;20040;-48
2022/05/08 01:08:24;;;;;;;2.13;0.90;;;;;;;21.43;47.59;102728.03;5077603;28;20028;-47
2022/05/08 01:10:50;;;;;;;1.40;0.90;;;;;;;21.41;47.68;102730.03;5072225;28;20108;-48
2022/05/08 01:13:15;;;;;;;1.45;0.98;;;;;;;21.42;47.82;102731.75;5083172;28;20017;-49
2022/05/08 01:15:46;;;;;;;1.38;1.02;;;;;;;21.42;47.54;102726.31;5082421;28;20058;-48
2022/05/08 01:18:12;;;;;;;1.88;1.08;;;;;;;21.41;47.43;102726.47;5083802;28;20020;-48
2022/05/08 01:20:39;;;;;;;1.20;1.00;;;;;;;21.40;47.50;102724.75;5083421;28;20080;-47
2022/05/08 01:23:05;;;;;;;1.33;1.10;;;;;;;21.39;47.32;102731.16;5064417;28;20096;-48
2022/05/08 01:25:32;;;;;;;1.70;0.77;;;;;;;21.39;47.62;102737.44;5063087;28;20029;-51
2022/05/08 01:27:57;;;;;;;1.08;0.90;;;;;;;21.38;47.56;102741.13;5063555;28;20059;-49
2022/05/08 01:30:22;;;;;;;1.88;1.13;;;;;;;21.38;47.36;102745.69;5061497;28;20119;-50
2022/05/08 01:32:48;;;;;;;1.30;0.90;;;;;;;21.35;47.40;102736.00;5067413;28;20060;-44
2022/05/08 01:35:14;;;;;;;1.25;1.02;;;;;;;21.37;47.50;102741.28;5067348;28;20029;-50
2022/05/08 01:37:39;;;;;;;2.05;0.93;;;;;;;21.36;47.59;102742.25;5099040;28;20032;-49
2022/05/08 01:40:05;;;;;;;1.15;0.90;;;;;;;21.35;47.49;102745.97;5107369;28;20531;-45
2022/05/08 01:42:30;;;;;;;1.58;1.00;;;;;;;21.36;47.56;102747.66;5106547;28;20024;-48
2022/05/08 01:44:55;;;;;;;1.80;1.20;;;;;;;21.34;47.19;102747.81;5091540;28;20070;-46
2022/05/08 01:50:05;;;;;;;1.42;1.00;;;;;;;21.33;47.33;102756.94;5087225;28;20515;-49
2022/05/08 01:52:30;;;;;;;2.13;0.90;;;;;;;21.33;47.31;102745.28;5087131;28;20054;-46
2022/05/08 01:54:56;;;;;;;0.80;0.77;;;;;;;21.33;47.41;102758.78;5086644;28;20080;-48
2022/05/08 01:57:21;;;;;;;0.90;0.77;;;;;;;21.32;47.26;102747.09;5087067;28;20047;-46
2022/05/08 01:59:46;;;;;;;1.60;1.08;;;;;;;21.31;47.22;102748.06;5085940;28;20189;-47
2022/05/08 02:02:11;;;;;;;1.65;1.05;;;;;;;21.31;47.08;102758.03;5086899;28;20028;-50
2022/05/08 02:04:37;;;;;;;2.05;0.95;;;;;;;21.30;47.27;102754.47;5086805;28;20039;-49
2022/05/08 02:07:03;;;;;;;1.25;0.95;;;;;;;21.27;47.22;102757.44;5072549;28;20096;-47
2022/05/08 02:09:28;;;;;;;1.05;0.80;;;;;;;21.28;47.21;102756.47;5066671;28;20013;-48
2022/05/08 02:11:53;;;;;;;0.90;0.82;;;;;;;21.28;47.16;102761.00;5084009;28;20055;-50
2022/05/08 02:14:18;;;;;;;1.88;0.93;;;;;;;21.28;47.16;102764.59;5085707;28;20055;-51
2022/05/08 02:16:44;;;;;;;3.00;1.10;;;;;;;21.28;47.16;102763.72;5086401;28;20044;-47
2022/05/08 02:19:09;;;;;;;2.25;1.00;;;;;;;21.28;47.26;102766.41;5086843;28;20028;-50
2022/05/08 02:21:34;;;;;;;1.77;0.90;;;;;;;21.28;47.22;102774.53;5086380;28;20044;-52
2022/05/08 02:23:59;;;;;;;2.47;1.40;;;;;;;21.26;46.91;102771.97;5086334;28;20115;-49
2022/05/08 02:26:24;;;;;;;1.63;0.80;;;;;;;21.26;47.04;102769.28;5086177;28;20036;-50
2022/05/08 02:28:50;;;;;;;1.75;0.95;;;;;;;21.25;46.92;102767.56;5085786;28;20085;-48
2022/05/08 02:31:15;;;;;;;1.95;1.00;;;;;;;21.25;46.94;102772.13;5085729;28;20012;-50
2022/05/08 02:33:40;;;;;;;1.10;0.88;;;;;;;21.24;46.83;102771.28;5086272;28;20020;-51
2022/05/08 02:36:06;;;;;;;1.13;0.80;;;;;;;21.21;46.96;102760.72;5088684;28;20179;-48
2022/05/08 02:38:33;;;;;;;2.78;1.23;;;;;;;21.22;47.13;102755.16;5106661;28;20087;-52
2022/05/08 02:40:58;;;;;;;2.40;1.17;;;;;;;21.22;46.81;102759.72;5106193;28;20031;-48
2022/05/08 02:43:23;;;;;;;1.33;0.98;;;;;;;21.22;46.78;102762.44;5104539;28;20024;-52
2022/05/08 02:45:48;;;;;;;0.70;0.63;;;;;;;21.20;47.11;102756.31;5084829;28;20074;-51
2022/05/08 02:48:13;;;;;;;1.02;0.85;;;;;;;21.21;46.79;102768.84;5086037;28;20169;-50
2022/05/08 02:50:39;;;;;;;3.50;0.90;;;;;;;21.21;46.77;102766.13;5085962;28;20104;-51
2022/05/08 02:53:04;;;;;;;1.60;1.08;;;;;;;21.19;46.76;102763.56;5085899;28;20051;-52
2022/05/08 03:00:58;;;;;;;2.25;1.00;;;;;;;21.17;46.71;102756.59;5084946;28;20039;-47
2022/05/08 03:03:23;;;;;;;1.52;0.80;;;;;;;21.16;46.96;102758.44;5085610;28;20095;-51
2022/05/08 03:05:48;;;;;;;0.85;0.73;;;;;;;21.17;46.79;102770.13;5080818;28;20033;-48
2022/05/08 03:08:15;;;;;;;1.75;1.10;;;;;;;21.16;47.00;102763.00;5066034;28;20037;-48
2022/05/08 03:13:25;;;;;;;1.42;1.05;;;;;;;21.15;46.60;102769.38;5085358;28;20058;-49
2022/05/08 03:15:50;;;;;;;1.55;0.90;;;;;;;21.14;46.92;102755.00;5084372;28;20037;-46
2022/05/08 03:18:16;;;;;;;2.10;1.13;;;;;;;21.10;46.68;102753.56;5085433;28;20032;-48
2022/05/08 03:20:41;;;;;;;1.33;0.85;;;;;;;21.13;46.52;102758.72;5085449;28;20033;-50
2022/05/08 03:23:06;;;;;;;1.60;0.90;;;;;;;21.12;46.56;102761.56;5100903;28;20032;-48
2022/05/08 03:25:32;;;;;;;1.70;1.10;;;;;;;21.12;46.84;102764.28;5085195;28;20084;-50
2022/05/08 03:27:57;;;;;;;2.15;0.98;;;;;;;21.12;46.71;102766.97;5085212;28;20047;-47
2022/05/08 03:30:24;;;;;;;1.15;0.90;;;;;;;21.09;46.71;102761.84;5084040;28;20021;-50
2022/05/08 03:32:49;;;;;;;2.15;1.42;;;;;;;21.11;46.63;102771.53;5085267;28;20028;-50
2022/05/08 03:35:14;;;;;;;1.73;1.30;;;;;;;21.11;46.48;102770.66;5084615;28;20072;-47
2022/05/08 03:37:40;;;;;;;1.58;1.10;;;;;;;21.10;46.49;102764.38;5097936;28;20028;-48
2022/05/08 03:40:05;;;;;;;2.00;1.08;;;;;;;21.09;46.57;102762.69;5105117;28;20079;-46
2022/05/08 03:42:31;;;;;;;2.47;1.33;;;;;;;21.09;46.56;102768.09;5105126;28;20044;-47
2022/05/08 03:44:56;;;;;;;1.10;1.00;;;;;;;21.08;46.60;102771.81;5088911;28;20130;-49
2022/05/08 03:47:23;;;;;;;1.80;1.25;;;;;;;21.03;46.35;102768.66;5084923;28;20096;-49
2022/05/08 03:49:48;;;;;;;1.70;1.00;;;;;;;21.07;46.36;102771.91;5100454;28;20056;-48
2022/05/08 03:52:14;;;;;;;1.83;0.88;;;;;;;21.05;46.21;102768.50;5084865;28;20032;-49
2022/05/08 03:54:39;;;;;;;1.52;1.00;;;;;;;21.05;46.07;102782.88;5084376;28;20119;-46
2022/05/08 03:57:05;;;;;;;1.65;1.10;;;;;;;21.05;46.11;102779.31;5084548;28;20054;-49
2022/05/08 03:59:31;;;;;;;1.65;1.10;;;;;;;21.05;46.29;102779.31;5083596;28;20560;-46
2022/05/08 04:01:56;;;;;;;1.90;1.00;;;;;;;21.03;45.93;102781.31;5084493;28;20038;-49
2022/05/08 04:04:21;;;;;;;1.75;0.90;;;;;;;21.03;46.36;102776.78;5084602;28;20043;-45
2022/05/08 04:06:46;;;;;;;2.00;1.02;;;;;;;21.02;46.18;102780.44;5070620;28;20041;-47
2022/05/08 04:09:12;;;;;;;2.78;1.52;;;;;;;21.01;46.39;102783.28;5064363;28;20056;-49
2022/05/08 04:11:37;;;;;;;2.72;1.60;;;;;;;21.01;45.95;102777.88;5064067;28;20029;-49
2022/05/08 04:14:03;;;;;;;1.27;0.98;;;;;;;20.97;46.29;102774.59;5063925;28;20032;-48
2022/05/08 04:16:28;;;;;;;1.23;0.90;;;;;;;21.01;46.00;102788.72;5063719;28;20055;-49
2022/05/08 04:18:53;;;;;;;1.30;0.88;;;;;;;21.00;46.12;102795.97;5063125;28;20055;-52
2022/05/08 04:21:18;;;;;;;1.50;0.85;;;;;;;20.99;46.24;102786.16;5070599;28;20050;-48
2022/05/08 04:26:30;;;;;;;1.23;1.10;;;;;;;20.97;46.13;102798.94;5083325;28;20054;-49
2022/05/08 04:28:55;;;;;;;1.80;1.02;;;;;;;20.96;45.89;102799.94;5083178;28;20026;-50
2022/05/08 04:31:20;;;;;;;2.33;1.20;;;;;;;20.95;46.04;102801.78;5083193;28;20048;-49
2022/05/08 04:33:46;;;;;;;1.45;0.90;;;;;;;20.94;46.20;102799.19;5083690;28;20059;-48
2022/05/08 04:36:11;;;;;;;1.75;1.00;;;;;;;20.95;45.83;102800.94;5082896;28;20540;-48
2022/05/08 04:38:37;;;;;;;1.75;0.90;;;;;;;20.92;45.90;102804.75;5083717;28;20025;-47
2022/05/08 04:41:02;;;;;;;0.80;0.70;;;;;;;20.94;46.16;102805.50;5083403;28;20036;-49
2022/05/08 04:43:27;;;;;;;1.83;0.90;;;;;;;20.94;45.77;102812.72;5083546;28;20059;-47
2022/05/08 04:45:52;;;;;;;2.38;1.00;;;;;;;20.94;45.96;102807.31;5078075;28;20508;-47
2022/05/08 04:48:17;;;;;;;1.98;1.20;;;;;;;20.93;46.21;102813.72;5083341;28;20047;-44
2022/05/08 04:50:43;;;;;;;1.92;1.00;;;;;;;20.92;46.08;102810.16;5083058;28;20115;-48
2022/05/08 04:53:08;;;;;;;1.40;0.80;;;;;;;20.92;45.86;102812.00;5083154;28;20119;-49
2022/05/08 04:55:33;;;;;;;1.35;0.90;;;;;;;20.90;46.04;102811.31;5082941;28;20037;-48
2022/05/08 04:57:59;;;;;;;2.20;0.80;;;;;;;20.90;46.17;102814.88;5082982;28;20040;-47
2022/05/08 05:00:24;;;;;;;1.95;0.90;;;;;;;20.90;46.31;102817.56;5077651;28;20420;-49
2022/05/08 05:02:49;;;;;;;1.63;1.00;;;;;;;20.89;46.21;102815.84;5078787;28;20028;-49
2022/05/08 05:05:14;;;;;;;2.17;0.70;;;;;;;20.90;46.32;102825.69;5077642;28;20024;-51
2022/05/08 05:07:43;;;;;;;1.30;1.00;;;;;;;20.88;46.02;102814.13;5063406;28;20571;-52
2022/05/08 05:10:11;;;;;;;1.48;0.82;;;;;;;20.90;46.29;102822.13;5076731;28;20036;-45
2022/05/08 05:12:37;;;;;;;1.63;0.95;;;;;;;20.88;46.36;102819.53;5082548;28;20549;-46
2022/05/08 05:15:04;;;;;;;1.73;1.30;;;;;;;20.89;46.10;102821.25;5081545;28;20024;-47
2022/05/08 05:17:29;;;;;;;1.65;0.95;;;;;;;20.88;46.08;102818.69;5082515;28;20029;-51
2022/05/08 05:19:54;;;;;;;1.27;1.00;;;;;;;20.89;46.23;102825.78;5080601;28;20040;-49
2022/05/08 05:22:23;;;;;;;1.83;0.98;;;;;;;20.88;45.99;102829.50;5082287;28;20115;-47
2022/05/08 05:24:49;;;;;;;2.05;1.35;;;;;;;20.89;46.27;102833.91;5079616;28;20028;-49
2022/05/08 05:27:14;;;;;;;1.00;0.73;;;;;;;20.87;45.95;102828.66;5082611;28;20025;-47
2022/05/08 05:29:39;;;;;;;2.67;1.80;;;;;;;20.85;46.28;102827.06;5081929;28;20039;-48
2022/05/08 05:32:04;;;;;;;2.63;1.00;;;;;;;20.88;46.38;102829.50;5083099;28;20067;-48
2022/05/08 05:34:30;;;;;;;2.42;0.95;;;;;;;20.88;46.12;102841.16;5083448;28;20020;-52
2022/05/08 05:36:55;;;;;;;1.67;0.80;;;;;;;20.88;46.14;102837.59;5070419;28;20039;-52
2022/05/08 05:39:21;;;;;;;2.42;1.02;;;;;;;20.84;46.35;102837.03;5075565;28;20032;-53
2022/05/08 05:41:46;;;;;;;1.55;0.82;;;;;;;20.87;46.58;102844.88;5072193;28;20032;-53
2022/05/08 05:44:12;;;;;;;1.95;1.02;;;;;;;20.87;46.70;102841.31;5073651;28;20056;-46
2022/05/08 05:49:21;;;;;;;1.85;0.80;;;;;;;20.83;46.64;102847.97;5069243;28;20043;-49
2022/05/08 05:51:46;;;;;;;2.63;0.98;;;;;;;20.88;46.58;102848.44;5068931;28;20024;-52
2022/05/08 05:54:11;;;;;;;2.83;1.48;;;;;;;20.88;46.63;102857.38;5075090;28;20016;-50
2022/05/08 05:56:37;;;;;;;1.83;0.88;;;;;;;20.88;47.00;102865.50;5074249;28;20438;-53
2022/05/08 05:59:02;;;;;;;1.02;0.90;;;;;;;20.88;46.90;102865.50;5069231;28;20025;-52
2022/05/08 06:01:28;;;;;;;1.30;0.85;;;;;;;20.89;46.97;102869.06;5073452;28;20032;-51
2022/05/08 06:03:53;;;;;;;1.77;0.90;;;;;;;20.89;47.05;102869.06;5071545;28;20067;-51
2022/05/08 06:06:18;;;;;;;1.75;1.05;;;;;;;20.88;47.04;102870.91;5067838;28;20028;-52
2022/05/08 06:08:43;;;;;;;1.95;0.88;;;;;;;20.88;47.08;102867.34;5069705;28;20033;-49
2022/05/08 06:11:08;;;;;;;2.65;0.98;;;;;;;20.88;47.12;102865.50;5074188;28;20139;-50
2022/05/08 06:13:34;;;;;;;1.67;1.05;;;;;;;20.87;46.85;102869.19;5076448;28;20036;-50
2022/05/08 06:15:59;;;;;;;1.92;0.88;;;;;;;20.88;46.96;102875.47;5074676;28;20024;-51
2022/05/08 06:18:24;;;;;;;1.58;0.77;;;;;;;20.87;47.14;102877.31;5079886;28;20025;-50
2022/05/08 06:20:49;;;;;;;1.17;0.80;;;;;;;20.87;47.20;102882.72;5080395;28;20032;-51
2022/05/08 06:23:15;;;;;;;1.60;1.08;;;;;;;20.88;46.97;102880.88;5074035;28;20055;-52
2022/05/08 06:25:41;;;;;;;1.58;0.90;;;;;;;20.88;47.35;102880.88;5075670;28;20096;-51
2022/05/08 06:28:08;;;;;;;1.20;0.70;;;;;;;20.89;46.87;102882.56;5080013;28;20025;-51
2022/05/08 06:30:33;;;;;;;2.63;0.85;;;;;;;20.90;47.01;102884.31;5074694;28;20035;-50
2022/05/08 06:32:58;;;;;;;1.10;0.85;;;;;;;20.90;46.77;102878.91;5079784;28;20032;-51
2022/05/08 06:35:23;;;;;;;1.95;1.08;;;;;;;20.90;46.96;102889.72;5077571;28;20029;-44
2022/05/08 06:37:49;;;;;;;2.45;0.93;;;;;;;20.91;46.72;102883.31;5087486;28;20032;-45
2022/05/08 06:40:14;;;;;;;1.40;0.85;;;;;;;20.90;46.75;102885.16;5085855;28;20035;-51
2022/05/08 06:42:39;;;;;;;2.40;1.10;;;;;;;20.90;47.01;102879.75;5085500;28;20021;-46
2022/05/08 06:45:05;;;;;;;1.73;0.90;;;;;;;20.92;46.75;102891.28;5084579;28;20045;-47
2022/05/08 06:47:30;;;;;;;1.15;0.85;;;;;;;20.92;46.88;102885.03;5085916;28;20024;-44
2022/05/08 06:49:55;;;;;;;1.77;0.75;;;;;;;20.92;46.89;102882.31;5085846;28;20060;-45
2022/05/08 06:52:20;;;;;;;2.25;1.13;;;;;;;20.94;46.96;102888.44;5085600;28;20067;-47
2022/05/08 06:54:47;;;;;;;1.88;0.70;;;;;;;20.95;46.59;102887.47;5085512;28;20028;-47
2022/05/08 06:57:12;;;;;;;1.15;0.85;;;;;;;20.97;46.67;102882.75;5076759;28;20020;-49
2022/05/08 07:02:21;;;;;;;2.05;0.85;;;;;;;20.98;46.69;102887.19;5084408;28;20031;-46
2022/05/08 07:04:46;;;;;;;3.13;1.00;;;;;;;20.97;46.41;102888.19;5072880;28;20184;-48
2022/05/08 07:07:13;;;;;;;1.63;1.00;;;;;;;20.96;46.51;102898.13;5065401;28;20123;-48
2022/05/08 07:09:38;;;;;;;1.70;1.00;;;;;;;20.95;46.33;102888.31;5074035;28;20028;-45
2022/05/08 07:12:03;;;;;;;1.13;0.80;;;;;;;20.95;46.51;102890.16;5076688;28;20024;-44
2022/05/08 07:14:29;;;;;;;1.60;0.80;;;;;;;20.93;46.60;102895.69;5084727;28;20051;-45
2022/05/08 07:16:54;;;;;;;2.28;0.93;;;;;;;20.93;46.69;102893.00;5084165;28;20485;-46
2022/05/08 07:19:19;;;;;;;1.17;0.90;;;;;;;20.93;46.62;102898.41;5085680;28;20051;-44
2022/05/08 07:21:44;;;;;;;2.13;0.82;;;;;;;20.94;46.31;102896.53;5085185;28;20590;-47
2022/05/08 07:24:10;;;;;;;2.50;0.95;;;;;;;20.93;46.22;102894.84;5085356;28;20021;-46
2022/05/08 07:26:38;;;;;;;2.08;0.85;;;;;;;20.94;46.53;102900.13;5084912;28;20051;-45
2022/05/08 07:29:04;;;;;;;1.35;0.65;;;;;;;20.93;46.27;102900.25;5084034;28;20025;-47
2022/05/08 07:31:30;;;;;;;1.77;0.80;;;;;;;20.93;46.24;102908.34;5084111;28;20050;-46
2022/05/08 07:36:39;;;;;;;2.65;1.05;;;;;;;20.92;46.46;102912.06;5079304;28;20034;-45
2022/05/08 07:39:04;;;;;;;1.05;0.70;;;;;;;20.91;45.96;102916.63;5105370;28;20024;-45
2022/05/08 07:41:30;;;;;;;1.90;0.98;;;;;;;20.91;46.04;102911.22;5105024;28;20088;-47
2022/05/08 07:43:55;;;;;;;2.88;0.90;;;;;;;20.92;46.24;102910.22;5098510;28;20049;-47
2022/05/08 07:46:20;;;;;;;1.92;0.90;;;;;;;20.92;45.84;102917.47;5083878;28;20055;-44
2022/05/08 07:48:46;;;;;;;1.40;0.90;;;;;;;20.92;45.74;102907.50;5084584;28;20043;-44
2022/05/08 07:51:11;;;;;;;1.90;0.88;;;;;;;20.92;46.18;102915.63;5084697;28;20059;-43
2022/05/08 07:53:36;;;;;;;0.95;0.70;;;;;;;20.92;46.06;102910.22;5084522;28;20023;-45
2022/05/08 07:56:01;;;;;;;2.38;1.05;;;;;;;20.92;45.77;102918.31;5084192;28;20024;-44
2022/05/08 07:58:33;;;;;;;1.45;0.88;;;;;;;20.92;46.06;102917.47;5084598;28;20100;-45
2022/05/08 08:00:59;;;;;;;1.27;0.77;;;;;;;20.93;45.63;102913.75;5083636;28;20035;-50
2022/05/08 08:03:27;;;;;;;2.78;1.20;;;;;;;20.93;45.73;102920.03;5083896;28;20031;-45
2022/05/08 08:05:53;;;;;;;2.67;0.90;;;;;;;20.93;45.70;102920.03;5063265;28;20031;-46
2022/05/08 08:08:21;;;;;;;1.17;0.80;;;;;;;20.95;45.51;102922.63;5064199;28;20025;-47
2022/05/08 08:10:47;;;;;;;1.30;1.00;;;;;;;20.92;45.71;102917.47;5072970;28;20054;-46
2022/05/08 08:13:12;;;;;;;1.20;0.73;;;;;;;20.95;45.73;102917.22;5083968;28;20024;-46
2022/05/08 08:15:39;;;;;;;1.02;0.65;;;;;;;20.95;45.45;102919.91;5083229;28;20027;-45
2022/05/08 08:18:05;;;;;;;2.03;0.88;;;;;;;20.97;45.40;102926.03;5084400;28;20032;-51
2022/05/08 08:20:30;;;;;;;1.52;0.65;;;;;;;20.97;45.25;102913.38;5084427;28;20032;-45
2022/05/08 08:22:55;;;;;;;2.08;0.70;;;;;;;20.99;45.46;102931.31;5084022;28;20593;-49
2022/05/08 08:25:22;;;;;;;1.90;0.90;;;;;;;20.97;45.17;102929.59;5084003;28;20481;-46
2022/05/08 08:27:47;;;;;;;1.35;0.80;;;;;;;20.97;45.23;102921.47;5083907;28;20024;-45
2022/05/08 08:30:13;;;;;;;3.00;0.80;;;;;;;20.97;45.21;102926.88;5083070;28;20046;-46
2022/05/08 08:32:38;;;;;;;1.33;0.73;;;;;;;20.96;45.00;102925.19;5082927;28;20025;-46
2022/05/08 08:35:04;;;;;;;1.52;0.80;;;;;;;20.97;45.08;102928.75;5083054;28;20035;-44
2022/05/08 08:37:29;;;;;;;1.50;0.70;;;;;;;20.97;45.37;102921.47;5083609;28;20084;-44
2022/05/08 08:39:54;;;;;;;1.02;0.70;;;;;;;20.98;45.25;102916.91;5083669;28;20028;-48
2022/05/08 08:42:29;;;;;;;2.22;0.80;;;;;;;21.01;45.09;102926.63;5083310;28;20046;-47
2022/05/08 08:47:53;;;;;;;2.13;0.93;;;;;;;21.01;44.97;102923.94;5063640;28;20058;-46
2022/05/08 08:50:19;;;;;;;1.40;0.60;;;;;;;21.01;44.75;102923.94;5063509;28;20035;-46
2022/05/08 08:52:48;;;;;;;1.98;0.93;;;;;;;21.02;44.95;102922.94;5063597;28;20033;-47
2022/05/08 08:55:15;;;;;;;2.33;0.85;;;;;;;21.02;44.83;102928.34;5063531;28;20892;-44
2022/05/08 08:57:40;;;;;;;2.13;0.85;;;;;;;21.02;45.00;102921.06;5063389;28;20088;-44
2022/05/08 09:00:08;;;;;;;2.58;0.90;;;;;;;21.04;44.92;102924.53;5062488;28;20029;-50
2022/05/08 09:02:34;;;;;;;1.23;0.73;;;;;;;21.04;44.69;102929.94;5063470;28;20056;-46
2022/05/08 09:05:04;;;;;;;2.47;0.90;;;;;;;21.05;44.87;102931.63;5079616;28;20024;-44
2022/05/08 09:07:39;;;;;;;1.42;0.80;;;;;;;21.06;44.75;102927.94;5083549;28;20044;-43
2022/05/08 09:10:24;;;;;;;1.25;0.88;;;;;;;21.08;44.55;102922.41;5080600;28;20111;-46
2022/05/08 09:12:52;;;;;;;1.98;0.60;;;;;;;21.07;44.89;102921.56;5063132;28;20025;-47
2022/05/08 09:15:24;;;;;;;1.23;0.70;;;;;;;21.08;44.75;102927.81;5062389;28;20084;-45
2022/05/08 09:17:52;;;;;;;1.42;0.60;;;;;;;21.07;44.56;102920.66;5063258;28;20033;-45
2022/05/08 09:20:32;;;;;;;1.58;0.80;;;;;;;21.08;44.66;102923.25;5063436;28;20052;-44
2022/05/08 09:23:16;;;;;;;1.33;0.85;;;;;;;21.05;44.41;102910.00;5063182;28;20029;-48
2022/05/08 09:25:45;;;;;;;2.05;0.70;;;;;;;21.08;44.37;102909.72;5063307;28;20053;-45
2022/05/08 09:28:27;;;;;;;1.88;0.70;;;;;;;21.10;44.22;102920.41;5063150;28;20041;-48
2022/05/08 09:31:00;;;;;;;1.13;0.80;;;;;;;21.09;44.41;102913.28;5062380;28;20028;-48
2022/05/08 09:33:38;;;;;;;1.52;0.95;;;;;;;21.11;44.13;102911.28;5063452;28;20535;-48
2022/05/08 09:36:08;;;;;;;1.60;0.90;;;;;;;21.07;44.43;102909.84;5064529;28;20083;-46
2022/05/08 09:38:50;;;;;;;0.95;0.63;;;;;;;21.08;44.38;102911.59;5062985;28;20108;-47
2022/05/08 09:41:23;;;;;;;1.35;0.75;;;;;;;21.10;44.19;102910.44;5062998;28;20049;-46
2022/05/08 09:43:50;;;;;;;1.25;0.60;;;;;;;21.09;44.37;102913.28;5067674;28;20016;-45
2022/05/08 09:46:17;;;;;;;1.55;0.70;;;;;;;21.10;44.44;102902.31;5080868;28;20037;-44
2022/05/08 09:48:42;;;;;;;1.45;0.70;;;;;;;21.08;44.30;102904.31;5083396;28;20036;-44
2022/05/08 09:51:10;;;;;;;1.25;0.70;;;;;;;21.10;44.24;102901.47;5083109;28;20028;-48
2022/05/08 09:53:37;;;;;;;1.40;0.73;;;;;;;21.08;44.31;102904.31;5087018;28;20085;-45
2022/05/08 09:56:05;;;;;;;0.95;0.70;;;;;;;21.11;44.29;102897.78;5086808;28;20016;-44
2022/05/08 09:58:31;;;;;;;0.93;0.57;;;;;;;21.10;44.51;102902.31;5087187;28;20028;-44
2022/05/08 10:00:56;;;;;;;1.73;0.98;;;;;;;21.08;44.41;102896.22;5085663;28;20447;-44
2022/05/08 10:03:23;;;;;;;1.48;0.68;;;;;;;21.11;44.60;102901.38;5086243;28;20024;-46
2022/05/08 10:05:49;;;;;;;1.45;0.70;;;;;;;21.12;44.55;102885.97;5086011;28;20040;-47
2022/05/08 10:08:22;;;;;;;0.65;0.50;;;;;;;21.13;44.46;102887.69;5086916;28;20081;-49
2022/05/08 10:13:55;;;;;;;0.73;0.52;;;;;;;21.13;44.09;102890.41;5086351;28;20086;-46
2022/05/08 10:16:42;;;;;;;1.48;0.50;;;;;;;21.13;44.39;102885.84;5085766;28;20028;-44
2022/05/08 10:19:27;;;;;;;1.25;0.70;;;;;;;21.13;44.39;102884.97;5086653;28;20020;-45
2022/05/08 10:21:53;;;;;;;0.75;0.50;;;;;;;21.12;44.20;102885.97;5072056;28;20044;-44
2022/05/08 10:24:27;;;;;;;0.88;0.52;;;;;;;21.13;44.42;102885.84;5086207;28;20104;-46
2022/05/08 10:27:22;;;;;;;2.38;0.85;;;;;;;21.14;44.41;102889.41;5086169;28;20090;-47
2022/05/08 10:29:50;;;;;;;1.63;0.70;;;;;;;21.12;44.35;102884.13;5085315;28;20403;-47
2022/05/08 10:32:33;;;;;;;1.60;0.70;;;;;;;21.14;44.48;102887.53;5086305;28;20039;-45
2022/05/08 10:35:11;;;;;;;1.70;0.82;;;;;;;21.14;44.55;102889.41;5085541;28;20096;-45
2022/05/08 10:37:37;;;;;;;1.30;0.60;;;;;;;21.13;44.08;102888.53;5086042;28;20035;-46
2022/05/08 10:40:03;;;;;;;0.98;0.68;;;;;;;21.15;44.46;102874.88;5086007;28;20028;-45
2022/05/08 10:42:39;;;;;;;0.93;0.60;;;;;;;21.15;44.28;102881.16;5085792;28;20044;-45
2022/05/08 10:45:05;;;;;;;1.65;0.70;;;;;;;21.17;44.40;102875.59;5084809;28;20049;-47
2022/05/08 10:47:43;;;;;;;0.70;0.50;;;;;;;21.18;44.37;102885.44;5086049;28;20040;-45
2022/05/08 10:50:13;;;;;;;1.13;0.60;;;;;;;21.14;44.44;102874.03;5086211;28;20029;-45
2022/05/08 10:52:42;;;;;;;2.00;0.75;;;;;;;21.18;44.19;102880.03;5085851;28;20166;-46
2022/05/08 10:55:14;;;;;;;0.82;0.57;;;;;;;21.18;44.17;102867.34;5085727;28;20033;-48
2022/05/08 10:57:41;;;;;;;1.17;0.50;;;;;;;21.19;44.61;102860.09;5086008;28;20024;-45
2022/05/08 11:00:08;;;;;;;1.50;0.50;;;;;;;21.19;44.58;102862.78;5084687;28;20039;-46
2022/05/08 11:02:43;;;;;;;1.05;0.50;;;;;;;21.21;44.34;102869.78;5100800;28;20020;-47
2022/05/08 11:05:10;;;;;;;1.23;0.60;;;;;;;21.19;44.73;102858.22;5065166;28;20060;-45
2022/05/08 11:07:39;;;;;;;1.23;0.63;;;;;;;21.19;44.44;102852.81;5079965;28;20504;-44
2022/05/08 11:10:24;;;;;;;1.08;0.57;;;;;;;21.21;44.53;102858.97;5082766;28;20109;-46
2022/05/08 11:13:01;;;;;;;1.10;0.50;;;;;;;21.21;44.42;102850.84;5065283;28;20583;-47
2022/05/08 11:15:31;;;;;;;0.65;0.50;;;;;;;21.19;44.76;102846.56;5064329;28;20440;-46
2022/05/08 11:18:15;;;;;;;0.85;0.57;;;;;;;21.22;44.41;102855.25;5065629;28;20583;-47
2022/05/08 11:21:02;;;;;;;1.23;0.60;;;;;;;21.22;44.73;102849.84;5065492;28;20040;-46
2022/05/08 11:23:42;;;;;;;1.73;0.57;;;;;;;21.22;44.41;102838.19;5065469;28;20064;-45
2022/05/08 11:26:09;;;;;;;0.70;0.47;;;;;;;21.21;44.70;102842.75;5065105;28;20465;-46
2022/05/08 11:28:35;;;;;;;1.50;0.95;;;;;;;21.22;44.47;102841.72;5065426;28;20032;-45
2022/05/08 11:31:12;;;;;;;0.90;0.60;;;;;;;21.24;44.41;102838.91;5063995;28;20092;-46
2022/05/08 11:36:25;;;;;;;0.68;0.50;;;;;;;21.25;44.90;102845.19;5069862;28;20031;-47
2022/05/08 11:38:54;;;;;;;2.25;0.77;;;;;;;21.25;44.62;102842.47;5105261;28;20345;-48
2022/05/08 11:41:22;;;;;;;1.30;0.70;;;;;;;21.26;44.64;102845.03;5103862;28;20020;-45
2022/05/08 11:43:57;;;;;;;1.17;0.70;;;;;;;21.28;44.40;102836.75;5099690;28;20029;-44
2022/05/08 11:46:32;;;;;;;1.08;0.50;;;;;;;21.29;44.75;102835.78;5083969;28;20071;-46
2022/05/08 11:48:58;;;;;;;0.85;0.50;;;;;;;21.29;44.52;102855.59;5084890;28;20040;-47
2022/05/08 11:51:23;;;;;;;1.17;0.50;;;;;;;21.31;44.72;102850.03;5084871;28;20040;-48
2022/05/08 11:53:53;;;;;;;1.13;0.60;;;;;;;21.31;44.92;102844.59;5084834;28;20027;-46
2022/05/08 11:56:32;;;;;;;1.75;0.50;;;;;;;21.34;44.92;102841.66;5084741;28;20104;-45